ADDS METAR Data

Data at: 0042 UTC 21 Nov 2017

METAR for:KEWR (Newark Intl, NJ, US)
Text:KEWR 202351Z 22008KT 10SM FEW060 SCT250 06/M04 A3011 RMK AO2 SLP195 T00611044 10089 20061 51012
Temperature: 6.1°C ( 43°F)
Dewpoint: -4.4°C ( 24°F) [RH = 47%]
Pressure (altimeter):30.11 inches Hg (1019.7 mb) [Sea level pressure: 1019.5 mb]
Winds:from the SW (220 degrees) at 9 MPH (8 knots; 4.1 m/s)
Visibility:10 or more sm (16+ km)
Ceiling:at least 12,000 feet AGL
Clouds: few clouds at 6000 feet AGL, scattered clouds at 25000 feet AGL